createdAt,value
2019-02-18T00:00:53.589Z,5.44
2019-02-18T00:03:23.092Z,5.42
2019-02-18T00:05:52.625Z,5.39
2019-02-18T00:08:22.400Z,5.34
2019-02-18T00:10:51.938Z,5.28
2019-02-18T00:13:21.464Z,5.22
2019-02-18T00:15:50.980Z,5.14
2019-02-18T00:18:20.834Z,5.10
2019-02-18T00:20:50.339Z,5.08
2019-02-18T00:23:19.987Z,5.03
2019-02-18T00:25:49.494Z,4.98
2019-02-18T00:28:19.015Z,4.92
2019-02-18T00:30:48.555Z,4.84
2019-02-18T00:33:18.075Z,4.78
2019-02-18T00:35:47.603Z,4.74
2019-02-18T00:38:17.186Z,4.71
2019-02-18T00:40:46.688Z,4.66
2019-02-18T00:43:16.263Z,4.62
2019-02-18T00:45:45.749Z,4.56
2019-02-18T00:48:15.622Z,4.51
2019-02-18T00:50:45.155Z,4.48
2019-02-18T00:53:14.685Z,4.45
2019-02-18T00:55:44.193Z,4.41
2019-02-18T00:58:13.702Z,4.37
2019-02-18T01:00:43.232Z,4.35
2019-02-18T01:03:12.734Z,4.35
2019-02-18T01:05:42.264Z,4.35
2019-02-18T01:08:11.783Z,4.33
2019-02-18T01:10:41.684Z,4.31
2019-02-18T01:13:11.333Z,4.29
2019-02-18T01:15:40.898Z,4.29
2019-02-18T01:18:10.405Z,4.27
2019-02-18T01:20:39.934Z,4.28
2019-02-18T01:23:09.433Z,4.28
2019-02-18T01:25:38.956Z,4.28
2019-02-18T01:28:08.488Z,4.26
2019-02-18T01:30:38.007Z,4.24
2019-02-18T01:33:07.542Z,4.19
2019-02-18T01:35:37.044Z,4.17
2019-02-18T01:38:06.652Z,4.14
2019-02-18T01:40:36.171Z,4.13
2019-02-18T01:43:05.751Z,4.09
2019-02-18T01:45:35.273Z,4.08
2019-02-18T01:48:04.784Z,4.05
2019-02-18T01:50:34.329Z,4.02
2019-02-18T01:53:06.751Z,4.00
2019-02-18T01:55:36.254Z,3.97
2019-02-18T01:58:06.065Z,3.95
2019-02-18T02:00:35.570Z,3.94
2019-02-18T02:03:05.095Z,3.93
2019-02-18T02:05:34.672Z,3.94
2019-02-18T02:08:04.455Z,3.90
2019-02-18T02:10:34.010Z,3.86
2019-02-18T02:13:33.065Z,3.82
2019-02-18T02:16:04.396Z,3.80
2019-02-18T02:18:33.904Z,3.76
2019-02-18T02:21:03.519Z,3.73
2019-02-18T02:23:33.035Z,3.70
2019-02-18T02:26:02.527Z,3.66
2019-02-18T02:28:32.517Z,3.62
2019-02-18T02:31:02.116Z,3.60
2019-02-18T02:33:31.698Z,3.59
2019-02-18T02:36:01.208Z,3.58
2019-02-18T02:38:30.706Z,3.56
2019-02-18T02:41:00.239Z,3.56
2019-02-18T02:43:29.743Z,3.52
2019-02-18T02:45:59.280Z,3.49
2019-02-18T02:48:28.781Z,3.46
2019-02-18T02:50:58.290Z,3.43
2019-02-18T02:53:27.816Z,3.41
2019-02-18T02:55:57.330Z,3.40
2019-02-18T02:58:26.916Z,3.36
2019-02-18T03:00:56.494Z,3.30
2019-02-18T03:03:25.998Z,3.30
2019-02-18T03:05:55.516Z,3.28
2019-02-18T03:08:25.024Z,3.25
2019-02-18T03:10:54.722Z,3.24
2019-02-18T03:13:24.238Z,3.19
2019-02-18T03:15:53.831Z,3.19
2019-02-18T03:18:23.354Z,3.21
2019-02-18T03:20:52.872Z,3.23
2019-02-18T03:23:22.404Z,3.21
2019-02-18T03:25:51.899Z,3.17
2019-02-18T03:28:35.016Z,3.15
2019-02-18T03:31:12.419Z,3.13
2019-02-18T03:33:47.420Z,3.09
2019-02-18T03:36:16.924Z,3.04
2019-02-18T03:38:46.431Z,3.04
2019-02-18T03:41:15.952Z,3.02
2019-02-18T03:43:45.461Z,3.00
2019-02-18T03:46:15.065Z,2.97
2019-02-18T03:48:44.580Z,2.98
2019-02-18T03:51:14.086Z,2.97
2019-02-18T03:53:43.939Z,2.96
2019-02-18T03:56:13.433Z,2.94
2019-02-18T03:58:43.036Z,2.92
2019-02-18T04:01:12.544Z,2.93
2019-02-18T04:03:42.039Z,2.92
2019-02-18T04:06:11.559Z,2.92
2019-02-18T04:08:43.236Z,2.93
2019-02-18T04:11:12.450Z,2.91
2019-02-18T04:13:41.954Z,2.87
2019-02-18T04:16:11.483Z,2.83
2019-02-18T04:18:40.982Z,2.81
2019-02-18T04:21:10.490Z,2.80
2019-02-18T04:23:40.020Z,2.80
2019-02-18T04:26:09.530Z,2.80
2019-02-18T04:28:39.070Z,2.80
2019-02-18T04:31:08.875Z,2.81
2019-02-18T04:33:38.384Z,2.80
2019-02-18T04:36:07.985Z,2.80
2019-02-18T04:38:37.498Z,2.78
2019-02-18T04:41:06.991Z,2.75
2019-02-18T04:43:36.591Z,2.75
2019-02-18T04:46:06.112Z,2.73
2019-02-18T04:48:35.759Z,2.73
2019-02-18T04:51:05.269Z,2.69
2019-02-18T04:53:34.782Z,2.65
2019-02-18T04:56:04.308Z,2.62
2019-02-18T04:58:33.825Z,2.61
2019-02-18T05:01:03.350Z,2.60
2019-02-18T05:03:32.866Z,2.58
2019-02-18T05:06:02.376Z,2.56
2019-02-18T05:08:31.890Z,2.53
2019-02-18T05:11:01.400Z,2.51
2019-02-18T05:13:31.134Z,2.50
2019-02-18T05:16:00.625Z,2.48
2019-02-18T05:18:30.217Z,2.47
2019-02-18T05:20:59.750Z,2.45
2019-02-18T05:23:29.258Z,2.41
2019-02-18T05:25:59.058Z,2.38
2019-02-18T05:28:28.568Z,2.34
2019-02-18T05:30:58.094Z,2.27
2019-02-18T05:33:27.656Z,2.23
2019-02-18T05:35:57.115Z,2.20
2019-02-18T05:38:26.948Z,2.13
2019-02-18T05:40:56.462Z,2.09
2019-02-18T05:43:25.986Z,2.08
2019-02-18T05:45:55.512Z,2.06
2019-02-18T05:48:25.022Z,2.05
2019-02-18T05:50:54.569Z,2.07
2019-02-18T05:53:26.771Z,2.09
2019-02-18T05:55:56.274Z,2.06
2019-02-18T05:58:25.795Z,2.02
2019-02-18T06:00:55.314Z,1.99
2019-02-18T06:03:24.849Z,1.98
2019-02-18T06:05:54.348Z,1.97
2019-02-18T06:08:23.861Z,1.99
2019-02-18T06:10:53.408Z,1.99
2019-02-18T06:13:23.211Z,1.96
2019-02-18T06:15:52.863Z,1.97
2019-02-18T06:18:22.352Z,1.93
2019-02-18T06:20:51.867Z,1.93
2019-02-18T06:23:21.393Z,1.95
2019-02-18T06:25:50.981Z,1.97
2019-02-18T06:28:20.703Z,2.01
2019-02-18T06:30:50.209Z,2.04
2019-02-18T06:33:19.714Z,2.08
2019-02-18T06:35:49.234Z,2.12
2019-02-18T06:38:18.751Z,2.18
2019-02-18T06:40:48.577Z,2.22
2019-02-18T06:43:18.084Z,2.30
2019-02-18T06:45:47.508Z,2.39
2019-02-18T06:48:24.453Z,2.46
2019-02-18T06:50:53.973Z,2.63
2019-02-18T06:53:23.925Z,3.05
2019-02-18T06:55:53.450Z,3.64
2019-02-18T06:58:24.597Z,4.38
2019-02-18T07:00:53.900Z,5.17
2019-02-18T07:03:32.750Z,5.96
2019-02-18T07:06:04.560Z,6.80
2019-02-18T07:08:38.583Z,7.70
2019-02-18T07:11:18.816Z,8.54
2019-02-18T07:13:48.331Z,9.32
2019-02-18T07:16:17.859Z,10.02
2019-02-18T07:18:47.383Z,10.71
2019-02-18T07:21:16.893Z,11.40
2019-02-18T07:23:46.441Z,11.99
2019-02-18T07:26:15.961Z,12.38
2019-02-18T07:28:45.672Z,12.77
2019-02-18T07:31:15.191Z,13.17
2019-02-18T07:33:44.720Z,13.60
2019-02-18T07:36:14.994Z,14.12
2019-02-18T07:38:44.512Z,14.66
2019-02-18T07:41:14.030Z,15.12
2019-02-18T07:43:43.580Z,15.67
2019-02-18T07:46:13.107Z,16.15
2019-02-18T07:48:42.641Z,16.62
2019-02-18T07:51:12.347Z,16.98
2019-02-18T07:53:41.864Z,17.17
2019-02-18T07:56:11.392Z,17.43
2019-02-18T07:58:41.055Z,17.68
2019-02-18T08:01:10.583Z,17.95
2019-02-18T08:03:40.118Z,18.29
2019-02-18T08:06:09.989Z,18.59
2019-02-18T08:08:39.519Z,18.92
2019-02-18T08:11:09.053Z,19.32
2019-02-18T08:13:38.591Z,19.73
2019-02-18T08:16:08.130Z,19.92
2019-02-18T08:18:37.668Z,20.22
2019-02-18T08:21:07.342Z,20.52
2019-02-18T08:23:36.855Z,20.78
2019-02-18T08:26:07.755Z,20.93
2019-02-18T08:28:37.577Z,21.04
2019-02-18T08:31:07.187Z,21.15
2019-02-18T08:33:36.711Z,21.21
2019-02-18T08:36:06.282Z,21.10
2019-02-18T08:38:35.807Z,20.96
2019-02-18T08:41:05.351Z,21.14
2019-02-18T08:43:34.925Z,21.25
2019-02-18T08:46:04.808Z,21.42
2019-02-18T08:48:34.307Z,21.49
2019-02-18T08:51:03.849Z,21.62
2019-02-18T08:53:33.369Z,21.65
2019-02-18T08:56:02.911Z,21.40
2019-02-18T08:58:32.459Z,21.08
2019-02-18T09:01:02.846Z,20.81
2019-02-18T09:03:32.601Z,20.69
2019-02-18T09:06:02.150Z,20.58
2019-02-18T09:08:31.668Z,20.77
2019-02-18T09:11:01.216Z,21.22
2019-02-18T09:13:30.802Z,21.70
2019-02-18T09:16:00.723Z,22.10
2019-02-18T09:18:30.239Z,22.48
2019-02-18T09:21:00.281Z,22.84
2019-02-18T09:23:46.436Z,23.21
2019-02-18T09:26:17.033Z,23.34
2019-02-18T09:28:46.641Z,23.37
2019-02-18T09:31:17.889Z,23.56
2019-02-18T09:33:47.701Z,23.80
2019-02-18T09:36:17.217Z,23.95
2019-02-18T09:38:46.781Z,24.24
2019-02-18T09:41:16.494Z,24.29
2019-02-18T09:43:46.029Z,24.22
2019-02-18T09:46:15.558Z,24.32
2019-02-18T09:48:45.226Z,24.47
2019-02-18T09:51:14.755Z,24.59
2019-02-18T09:53:44.285Z,24.55
2019-02-18T09:56:13.962Z,24.56
2019-02-18T09:58:43.591Z,24.59
2019-02-18T10:01:13.124Z,24.66
2019-02-18T10:03:42.674Z,24.72
2019-02-18T10:06:12.203Z,24.77
2019-02-18T10:08:41.742Z,24.59
2019-02-18T10:11:11.267Z,24.36
2019-02-18T10:13:40.798Z,24.29
2019-02-18T10:16:10.319Z,24.11
2019-02-18T10:18:39.880Z,23.94
2019-02-18T10:21:09.891Z,23.98
2019-02-18T10:23:39.404Z,24.01
2019-02-18T10:26:08.945Z,23.95
2019-02-18T10:28:38.492Z,23.77
2019-02-18T10:31:08.003Z,23.75
2019-02-18T10:33:37.558Z,23.60
2019-02-18T10:36:07.080Z,23.41
2019-02-18T10:38:36.609Z,23.18
2019-02-18T10:41:07.264Z,22.98
2019-02-18T10:43:36.869Z,22.68
2019-02-18T10:46:06.394Z,22.44
2019-02-18T10:48:35.947Z,22.19
2019-02-18T10:51:05.486Z,21.87
2019-02-18T10:53:35.013Z,21.62
2019-02-18T10:56:04.548Z,21.28
2019-02-18T10:58:34.105Z,20.99
2019-02-18T11:01:04.072Z,20.71
2019-02-18T11:03:33.704Z,20.44
2019-02-18T11:06:03.245Z,20.21
2019-02-18T11:08:32.762Z,20.02
2019-02-18T11:11:02.308Z,19.82
2019-02-18T11:13:31.838Z,19.62
2019-02-18T11:16:01.374Z,19.44
2019-02-18T11:18:30.928Z,19.17
2019-02-18T11:21:00.493Z,18.93
2019-02-18T11:23:30.306Z,18.77
2019-02-18T11:26:00.021Z,18.50
2019-02-18T11:28:29.540Z,18.16
2019-02-18T11:30:59.072Z,17.88
2019-02-18T11:33:28.622Z,17.61
2019-02-18T11:35:58.140Z,17.27
2019-02-18T11:38:27.657Z,16.90
2019-02-18T11:40:57.219Z,16.55
2019-02-18T11:43:26.754Z,16.22
2019-02-18T11:45:56.283Z,15.94
2019-02-18T11:48:25.851Z,15.71
2019-02-18T11:50:55.838Z,15.50
2019-02-18T11:53:25.358Z,15.30
2019-02-18T11:55:55.059Z,15.10
2019-02-18T11:58:24.589Z,14.94
2019-02-18T12:00:54.108Z,14.82
2019-02-18T12:03:23.655Z,14.73
2019-02-18T12:05:53.238Z,14.64
2019-02-18T12:08:22.762Z,14.56
2019-02-18T12:10:52.343Z,14.44
2019-02-18T12:13:21.934Z,14.36
2019-02-18T12:15:51.462Z,14.31
2019-02-18T12:18:21.019Z,14.28
2019-02-18T12:20:50.610Z,14.26
2019-02-18T12:23:20.142Z,14.24
2019-02-18T12:25:50.107Z,14.23
2019-02-18T12:28:19.635Z,14.21
2019-02-18T12:30:49.156Z,14.18
2019-02-18T12:33:18.731Z,14.16
2019-02-18T12:35:48.434Z,14.14
2019-02-18T12:38:18.026Z,14.15
2019-02-18T12:40:47.750Z,14.15
2019-02-18T12:43:17.273Z,14.13
2019-02-18T12:45:46.801Z,14.11
2019-02-18T12:48:16.825Z,14.13
2019-02-18T12:50:46.416Z,14.15
2019-02-18T12:53:15.974Z,14.16
2019-02-18T12:55:45.969Z,14.17
2019-02-18T12:58:15.602Z,14.20
2019-02-18T13:00:45.200Z,14.23
2019-02-18T13:03:15.168Z,14.26
2019-02-18T13:05:44.962Z,14.29
2019-02-18T13:08:14.492Z,14.30
2019-02-18T13:10:44.066Z,14.32
2019-02-18T13:13:13.579Z,14.33
2019-02-18T13:15:43.148Z,14.35
2019-02-18T13:18:12.675Z,14.34
2019-02-18T13:20:42.203Z,14.36
2019-02-18T13:23:12.122Z,14.36
2019-02-18T13:25:47.417Z,14.36
2019-02-18T13:28:12.910Z,14.35
2019-02-18T13:30:42.433Z,14.37
2019-02-18T13:33:11.979Z,14.40
2019-02-18T13:35:41.505Z,14.43
2019-02-18T13:38:11.212Z,14.47
2019-02-18T13:40:40.759Z,14.49
2019-02-18T13:43:10.285Z,14.51
2019-02-18T13:45:39.890Z,14.52
2019-02-18T13:48:09.627Z,14.52
2019-02-18T13:50:39.161Z,14.52
2019-02-18T13:53:09.061Z,14.54
2019-02-18T13:55:38.734Z,14.54
2019-02-18T13:58:08.264Z,14.53
2019-02-18T14:00:38.465Z,14.55
2019-02-18T14:03:08.202Z,14.55
2019-02-18T14:05:37.735Z,14.55
2019-02-18T14:08:07.279Z,14.52
2019-02-18T14:10:36.883Z,14.52
2019-02-18T14:13:06.597Z,14.51
2019-02-18T14:15:36.119Z,14.49
2019-02-18T14:18:05.901Z,14.48
2019-02-18T14:20:35.438Z,14.44
2019-02-18T14:23:04.984Z,14.41
2019-02-18T14:25:34.537Z,14.40
2019-02-18T14:28:04.049Z,14.39
2019-02-18T14:30:33.858Z,14.37
2019-02-18T14:33:03.444Z,14.34
2019-02-18T14:35:33.262Z,14.32
2019-02-18T14:38:02.799Z,14.30
2019-02-18T14:40:32.579Z,14.27
2019-02-18T14:43:02.098Z,14.24
2019-02-18T14:45:31.788Z,14.20
2019-02-18T14:48:01.435Z,14.18
2019-02-18T14:50:31.235Z,14.14
2019-02-18T14:53:01.101Z,14.10
2019-02-18T14:55:31.009Z,14.08
2019-02-18T14:58:00.536Z,14.08
2019-02-18T15:00:30.060Z,14.08
2019-02-18T15:02:59.678Z,14.07
2019-02-18T15:05:29.394Z,14.04
2019-02-18T15:07:58.910Z,14.00
2019-02-18T15:10:28.671Z,13.95
2019-02-18T15:12:58.250Z,13.91
2019-02-18T15:15:27.814Z,13.85
2019-02-18T15:17:57.443Z,13.81
2019-02-18T15:20:26.984Z,13.75
2019-02-18T15:22:56.496Z,13.73
2019-02-18T15:25:26.182Z,13.68
2019-02-18T15:27:55.706Z,13.62
2019-02-18T15:30:25.367Z,13.53
2019-02-18T15:32:54.963Z,13.46
2019-02-18T15:35:24.486Z,13.40
2019-02-18T15:37:54.010Z,13.35
2019-02-18T15:40:23.745Z,13.31
2019-02-18T15:42:53.292Z,13.25
2019-02-18T15:45:22.815Z,13.20
2019-02-18T15:47:52.724Z,13.12
2019-02-18T15:50:22.312Z,13.03
2019-02-18T15:52:51.841Z,12.96
2019-02-18T15:55:21.658Z,12.89
2019-02-18T15:57:51.248Z,12.85
2019-02-18T16:00:26.396Z,12.77
2019-02-18T16:02:56.210Z,12.71
2019-02-18T16:05:25.741Z,12.62
2019-02-18T16:07:55.328Z,12.53
2019-02-18T16:10:24.871Z,12.44
2019-02-18T16:12:54.394Z,12.36
2019-02-18T16:15:24.312Z,12.28
2019-02-18T16:17:53.855Z,12.17
2019-02-18T16:20:23.467Z,12.07
2019-02-18T16:22:53.000Z,11.95
2019-02-18T16:25:25.983Z,11.84
2019-02-18T16:27:55.506Z,11.75
2019-02-18T16:30:25.416Z,11.66
2019-02-18T16:32:54.996Z,11.57
2019-02-18T16:35:24.516Z,11.50
2019-02-18T16:37:54.045Z,11.37
2019-02-18T16:40:24.434Z,11.26
2019-02-18T16:42:59.090Z,11.14
2019-02-18T16:45:25.301Z,11.03
2019-02-18T16:47:55.001Z,10.93
2019-02-18T16:50:24.525Z,10.84
2019-02-18T16:52:54.044Z,10.75
2019-02-18T16:55:23.599Z,10.68
2019-02-18T16:57:53.484Z,10.62
2019-02-18T17:00:24.722Z,10.57
2019-02-18T17:02:54.748Z,10.53
2019-02-18T17:05:24.288Z,10.49
2019-02-18T17:07:53.890Z,10.41
2019-02-18T17:10:23.441Z,10.39
2019-02-18T17:12:52.959Z,10.36
2019-02-18T17:15:22.485Z,10.31
2019-02-18T17:17:52.115Z,10.28
2019-02-18T17:20:21.640Z,10.22
2019-02-18T17:22:51.160Z,10.19
2019-02-18T17:25:20.879Z,10.17
2019-02-18T17:27:50.583Z,10.15
2019-02-18T17:30:20.107Z,10.09
2019-02-18T17:32:49.781Z,10.04
2019-02-18T17:35:19.373Z,10.00
2019-02-18T17:37:48.898Z,9.97
2019-02-18T17:40:18.774Z,9.92
2019-02-18T17:42:48.292Z,9.89
2019-02-18T17:45:18.823Z,9.85
2019-02-18T17:47:48.360Z,9.79
2019-02-18T17:50:18.782Z,9.73
2019-02-18T17:52:48.445Z,9.69
2019-02-18T17:55:20.005Z,9.66
2019-02-18T17:57:49.589Z,9.65
2019-02-18T18:00:24.152Z,9.64
2019-02-18T18:02:53.846Z,9.63
2019-02-18T18:05:23.365Z,9.66
2019-02-18T18:07:52.975Z,9.67
2019-02-18T18:10:22.815Z,9.67
2019-02-18T18:12:52.335Z,9.69
2019-02-18T18:15:21.866Z,9.69
2019-02-18T18:17:51.637Z,9.64
2019-02-18T18:20:21.604Z,9.56
2019-02-18T18:22:51.140Z,9.44
2019-02-18T18:25:20.680Z,9.36
2019-02-18T18:27:50.235Z,9.29
2019-02-18T18:30:20.554Z,9.22
2019-02-18T18:32:50.256Z,9.19
2019-02-18T18:35:19.776Z,9.11
2019-02-18T18:37:49.383Z,9.03
2019-02-18T18:40:20.833Z,8.99
2019-02-18T18:42:50.341Z,8.92
2019-02-18T18:45:20.464Z,8.86
2019-02-18T18:47:51.577Z,8.79
2019-02-18T18:50:23.013Z,8.76
2019-02-18T18:52:52.596Z,8.74
2019-02-18T18:55:22.185Z,8.68
2019-02-18T18:57:51.701Z,8.61
2019-02-18T19:00:26.166Z,8.55
2019-02-18T19:02:56.160Z,8.54
2019-02-18T19:05:25.669Z,8.52
2019-02-18T19:07:55.174Z,8.51
2019-02-18T19:10:24.738Z,8.49
2019-02-18T19:12:54.247Z,8.45
2019-02-18T19:15:23.760Z,8.40
2019-02-18T19:17:53.300Z,8.34
2019-02-18T19:20:22.816Z,8.31
2019-02-18T19:22:52.339Z,8.29
2019-02-18T19:25:21.868Z,8.28
2019-02-18T19:27:51.391Z,8.27
2019-02-18T19:30:31.324Z,8.26
2019-02-18T19:33:00.836Z,8.23
2019-02-18T19:35:30.438Z,8.19
2019-02-18T19:37:59.973Z,8.16
2019-02-18T19:40:29.486Z,8.12
2019-02-18T19:42:59.003Z,8.08
2019-02-18T19:45:28.548Z,8.09
2019-02-18T19:47:58.069Z,8.04
2019-02-18T19:50:27.743Z,7.98
2019-02-18T19:52:57.365Z,7.89
2019-02-18T19:55:26.856Z,7.83
2019-02-18T19:57:56.481Z,7.78
2019-02-18T20:00:26.034Z,7.72
2019-02-18T20:02:55.577Z,7.66
2019-02-18T20:05:25.113Z,7.61
2019-02-18T20:07:55.052Z,7.55
2019-02-18T20:10:24.737Z,7.52
2019-02-18T20:12:56.019Z,7.51
2019-02-18T20:15:25.536Z,7.50
2019-02-18T20:17:55.080Z,7.48
2019-02-18T20:20:24.587Z,7.43
2019-02-18T20:22:54.231Z,7.41
2019-02-18T20:25:23.737Z,7.40
2019-02-18T20:27:53.256Z,7.36
2019-02-18T20:30:23.158Z,7.34
2019-02-18T20:32:52.676Z,7.30
2019-02-18T20:35:22.219Z,7.26
2019-02-18T20:37:51.894Z,7.25
2019-02-18T20:40:21.788Z,7.24
2019-02-18T20:42:51.382Z,7.22
2019-02-18T20:45:20.922Z,7.18
2019-02-18T20:47:50.446Z,7.15
2019-02-18T20:50:19.955Z,7.15
2019-02-18T20:52:49.493Z,7.14
2019-02-18T20:55:19.869Z,7.15
2019-02-18T20:57:49.387Z,7.16
2019-02-18T21:00:21.105Z,7.15
2019-02-18T21:02:50.614Z,7.15
2019-02-18T21:05:20.223Z,7.14
2019-02-18T21:07:49.751Z,7.12
2019-02-18T21:10:24.067Z,7.13
2019-02-18T21:12:53.761Z,7.13
2019-02-18T21:15:23.371Z,7.15
2019-02-18T21:17:52.917Z,7.15
2019-02-18T21:20:22.459Z,7.13
2019-02-18T21:22:52.390Z,7.09
2019-02-18T21:25:21.902Z,7.04
2019-02-18T21:27:51.426Z,6.99
2019-02-18T21:30:21.166Z,6.94
2019-02-18T21:32:50.681Z,6.90
2019-02-18T21:35:20.239Z,6.85
2019-02-18T21:37:49.841Z,6.81
2019-02-18T21:40:19.429Z,6.75
2019-02-18T21:42:48.946Z,6.64
2019-02-18T21:45:18.668Z,6.56
2019-02-18T21:47:48.203Z,6.50
2019-02-18T21:50:19.341Z,6.44
2019-02-18T21:52:48.908Z,6.38
2019-02-18T21:55:18.424Z,6.34
2019-02-18T21:57:49.574Z,6.27
2019-02-18T22:00:23.075Z,6.23
2019-02-18T22:02:52.612Z,6.20
2019-02-18T22:05:22.114Z,6.21
2019-02-18T22:07:52.016Z,6.24
2019-02-18T22:10:21.597Z,6.22
2019-02-18T22:12:51.106Z,6.20
2019-02-18T22:15:21.120Z,6.17
2019-02-18T22:17:50.648Z,6.14
2019-02-18T22:20:20.875Z,6.13
2019-02-18T22:22:50.579Z,6.13
2019-02-18T22:25:20.089Z,6.11
2019-02-18T22:27:49.589Z,6.13
2019-02-18T22:30:19.459Z,6.14
2019-02-18T22:32:48.975Z,6.13
2019-02-18T22:35:18.786Z,6.13
2019-02-18T22:37:51.661Z,6.12
2019-02-18T22:40:21.167Z,6.07
2019-02-18T22:42:50.687Z,5.99
2019-02-18T22:45:20.223Z,5.95
2019-02-18T22:47:49.736Z,5.93
2019-02-18T22:50:19.425Z,5.91
2019-02-18T22:52:49.044Z,5.89
2019-02-18T22:55:18.556Z,5.87
2019-02-18T22:57:48.122Z,5.88
2019-02-18T23:00:54.212Z,5.89
2019-02-18T23:03:25.606Z,5.87
2019-02-18T23:05:55.147Z,5.85
2019-02-18T23:08:24.696Z,5.84
2019-02-18T23:10:54.426Z,5.81
2019-02-18T23:13:24.002Z,5.79
2019-02-18T23:15:53.688Z,5.76
2019-02-18T23:18:23.271Z,5.71
2019-02-18T23:20:52.794Z,5.63
2019-02-18T23:23:22.986Z,5.60
2019-02-18T23:25:52.507Z,5.59
2019-02-18T23:28:22.196Z,5.58
2019-02-18T23:30:51.739Z,5.55
2019-02-18T23:33:21.273Z,5.53
2019-02-18T23:35:50.787Z,5.50
2019-02-18T23:38:20.417Z,5.47
2019-02-18T23:40:49.943Z,5.47
2019-02-18T23:43:19.635Z,5.45
2019-02-18T23:45:49.373Z,5.42
2019-02-18T23:48:18.992Z,5.35
2019-02-18T23:50:48.506Z,5.29
2019-02-18T23:53:18.037Z,5.27
2019-02-18T23:55:47.560Z,5.23
2019-02-18T23:58:17.072Z,5.19
